sensor_id;sensor_type;location;lat;lon;timestamp;pressure;altitude;pressure_sealevel;temperature;humidity
5883;BME280;2967;51.488;6.618;2023-05-16T00:01:27;101429.81;;;13.12;100.00
5883;BME280;2967;51.488;6.618;2023-05-16T00:06:31;101435.41;;;13.08;100.00
5883;BME280;2967;51.488;6.618;2023-05-16T00:11:33;101432.25;;;13.15;100.00
5883;BME280;2967;51.488;6.618;2023-05-16T00:16:38;101445.19;;;13.07;100.00
5883;BME280;2967;51.488;6.618;2023-05-16T00:21:42;101433.44;;;12.97;100.00
5883;BME280;2967;51.488;6.618;2023-05-16T00:26:45;101440.09;;;12.90;100.00
5883;BME280;2967;51.488;6.618;2023-05-16T00:31:49;101434.03;;;12.88;100.00
5883;BME280;2967;51.488;6.618;2023-05-16T00:36:52;101451.78;;;12.74;100.00
5883;BME280;2967;51.488;6.618;2023-05-16T00:41:55;101442.28;;;12.70;100.00
5883;BME280;2967;51.488;6.618;2023-05-16T00:46:59;101440.97;;;12.77;100.00
5883;BME280;2967;51.488;6.618;2023-05-16T00:52:03;101450.25;;;12.70;100.00
5883;BME280;2967;51.488;6.618;2023-05-16T00:57:06;101451.69;;;12.61;100.00
5883;BME280;2967;51.488;6.618;2023-05-16T01:02:11;101433.97;;;12.48;100.00
5883;BME280;2967;51.488;6.618;2023-05-16T01:07:14;101445.63;;;12.45;100.00
5883;BME280;2967;51.488;6.618;2023-05-16T01:12:23;101451.41;;;12.38;100.00
5883;BME280;2967;51.488;6.618;2023-05-16T01:17:40;101442.97;;;12.31;100.00
5883;BME280;2967;51.488;6.618;2023-05-16T01:23:03;101459.16;;;12.41;100.00
5883;BME280;2967;51.488;6.618;2023-05-16T01:28:09;101464.19;;;12.31;100.00
5883;BME280;2967;51.488;6.618;2023-05-16T01:33:12;101480.31;;;12.28;100.00
5883;BME280;2967;51.488;6.618;2023-05-16T01:38:17;101482.97;;;12.28;100.00
5883;BME280;2967;51.488;6.618;2023-05-16T01:43:32;101475.00;;;12.28;100.00
5883;BME280;2967;51.488;6.618;2023-05-16T01:48:38;101482.94;;;12.14;100.00
5883;BME280;2967;51.488;6.618;2023-05-16T01:53:45;101491.28;;;12.22;100.00
5883;BME280;2967;51.488;6.618;2023-05-16T01:58:51;101492.03;;;12.10;100.00
5883;BME280;2967;51.488;6.618;2023-05-16T02:03:54;101502.53;;;12.12;100.00
5883;BME280;2967;51.488;6.618;2023-05-16T02:08:58;101506.66;;;12.02;100.00
5883;BME280;2967;51.488;6.618;2023-05-16T02:14:02;101515.69;;;11.99;100.00
5883;BME280;2967;51.488;6.618;2023-05-16T02:19:04;101520.78;;;12.02;100.00
5883;BME280;2967;51.488;6.618;2023-05-16T02:24:07;101527.44;;;12.09;100.00
5883;BME280;2967;51.488;6.618;2023-05-16T02:29:11;101526.22;;;11.85;100.00
5883;BME280;2967;51.488;6.618;2023-05-16T02:34:15;101530.22;;;11.92;100.00
5883;BME280;2967;51.488;6.618;2023-05-16T02:39:18;101532.28;;;11.87;100.00
5883;BME280;2967;51.488;6.618;2023-05-16T02:44:25;101539.06;;;11.93;100.00
5883;BME280;2967;51.488;6.618;2023-05-16T02:49:28;101555.59;;;11.96;100.00
5883;BME280;2967;51.488;6.618;2023-05-16T02:54:31;101565.38;;;11.96;100.00
5883;BME280;2967;51.488;6.618;2023-05-16T02:59:35;101563.63;;;11.65;100.00
5883;BME280;2967;51.488;6.618;2023-05-16T03:04:38;101572.69;;;11.61;100.00
5883;BME280;2967;51.488;6.618;2023-05-16T03:09:40;101576.69;;;11.53;100.00
5883;BME280;2967;51.488;6.618;2023-05-16T03:14:44;101591.78;;;11.35;100.00
5883;BME280;2967;51.488;6.618;2023-05-16T03:19:47;101585.41;;;11.39;100.00
5883;BME280;2967;51.488;6.618;2023-05-16T03:24:50;101590.84;;;11.36;100.00
5883;BME280;2967;51.488;6.618;2023-05-16T03:29:54;101583.75;;;11.21;100.00
5883;BME280;2967;51.488;6.618;2023-05-16T03:34:57;101600.78;;;11.17;100.00
5883;BME280;2967;51.488;6.618;2023-05-16T03:40:00;101550.34;;;10.71;100.00
5883;BME280;2967;51.488;6.618;2023-05-16T03:45:07;101601.00;;;10.97;100.00
5883;BME280;2967;51.488;6.618;2023-05-16T03:50:10;101611.56;;;10.97;100.00
5883;BME280;2967;51.488;6.618;2023-05-16T03:55:13;101624.19;;;10.92;100.00
5883;BME280;2967;51.488;6.618;2023-05-16T04:00:18;101619.13;;;10.88;100.00
5883;BME280;2967;51.488;6.618;2023-05-16T04:05:21;101580.88;;;10.61;100.00
5883;BME280;2967;51.488;6.618;2023-05-16T04:10:23;101609.38;;;10.73;100.00
5883;BME280;2967;51.488;6.618;2023-05-16T04:15:28;101640.88;;;10.77;100.00
5883;BME280;2967;51.488;6.618;2023-05-16T04:20:30;101647.72;;;10.81;100.00
5883;BME280;2967;51.488;6.618;2023-05-16T04:25:33;101559.31;;;10.36;100.00
5883;BME280;2967;51.488;6.618;2023-05-16T04:30:37;101647.03;;;10.78;100.00
5883;BME280;2967;51.488;6.618;2023-05-16T04:35:40;101657.34;;;10.99;100.00
5883;BME280;2967;51.488;6.618;2023-05-16T04:40:43;101663.91;;;10.92;100.00
5883;BME280;2967;51.488;6.618;2023-05-16T04:45:47;101664.59;;;10.96;100.00
5883;BME280;2967;51.488;6.618;2023-05-16T04:50:51;101671.13;;;11.06;100.00
5883;BME280;2967;51.488;6.618;2023-05-16T04:55:53;101677.72;;;11.14;100.00
5883;BME280;2967;51.488;6.618;2023-05-16T05:00:57;101674.28;;;11.12;100.00
5883;BME280;2967;51.488;6.618;2023-05-16T05:06:02;101686.63;;;11.29;100.00
5883;BME280;2967;51.488;6.618;2023-05-16T05:11:05;101691.19;;;11.42;100.00
5883;BME280;2967;51.488;6.618;2023-05-16T05:16:09;101688.38;;;11.45;100.00
5883;BME280;2967;51.488;6.618;2023-05-16T05:21:12;101698.19;;;11.43;100.00
5883;BME280;2967;51.488;6.618;2023-05-16T05:26:14;101707.53;;;11.50;100.00
5883;BME280;2967;51.488;6.618;2023-05-16T05:31:18;101702.28;;;11.66;100.00
5883;BME280;2967;51.488;6.618;2023-05-16T05:36:21;101717.59;;;11.76;100.00
5883;BME280;2967;51.488;6.618;2023-05-16T05:41:24;101715.03;;;11.75;100.00
5883;BME280;2967;51.488;6.618;2023-05-16T05:46:29;101710.09;;;11.84;100.00
5883;BME280;2967;51.488;6.618;2023-05-16T05:51:32;101719.47;;;11.74;100.00
5883;BME280;2967;51.488;6.618;2023-05-16T05:56:34;101730.03;;;11.91;100.00
5883;BME280;2967;51.488;6.618;2023-05-16T06:01:39;101728.91;;;11.95;100.00
5883;BME280;2967;51.488;6.618;2023-05-16T06:06:41;101739.50;;;11.95;100.00
5883;BME280;2967;51.488;6.618;2023-05-16T06:11:44;101741.31;;;12.10;100.00
5883;BME280;2967;51.488;6.618;2023-05-16T06:16:48;101743.19;;;12.24;100.00
5883;BME280;2967;51.488;6.618;2023-05-16T06:21:50;101740.13;;;12.31;100.00
5883;BME280;2967;51.488;6.618;2023-05-16T06:26:53;101745.59;;;12.28;100.00
5883;BME280;2967;51.488;6.618;2023-05-16T06:31:57;101755.41;;;12.42;100.00
5883;BME280;2967;51.488;6.618;2023-05-16T06:37:00;101756.69;;;12.50;100.00
5883;BME280;2967;51.488;6.618;2023-05-16T06:42:04;101760.69;;;12.57;100.00
5883;BME280;2967;51.488;6.618;2023-05-16T06:47:08;101759.16;;;12.53;100.00
5883;BME280;2967;51.488;6.618;2023-05-16T06:52:11;101768.34;;;12.48;100.00
5883;BME280;2967;51.488;6.618;2023-05-16T06:57:14;101771.66;;;12.67;100.00
5883;BME280;2967;51.488;6.618;2023-05-16T07:02:20;101765.09;;;12.58;100.00
5883;BME280;2967;51.488;6.618;2023-05-16T07:07:22;101768.66;;;12.73;100.00
5883;BME280;2967;51.488;6.618;2023-05-16T07:12:25;101765.88;;;12.74;100.00
5883;BME280;2967;51.488;6.618;2023-05-16T07:17:29;101758.00;;;12.88;98.19
5883;BME280;2967;51.488;6.618;2023-05-16T07:22:32;101775.53;;;12.91;100.00
5883;BME280;2967;51.488;6.618;2023-05-16T07:27:34;101772.47;;;12.98;99.09
5883;BME280;2967;51.488;6.618;2023-05-16T07:32:38;101778.69;;;12.97;99.20
5883;BME280;2967;51.488;6.618;2023-05-16T07:37:41;101755.69;;;13.12;94.87
5883;BME280;2967;51.488;6.618;2023-05-16T07:42:44;101784.34;;;13.20;96.28
5883;BME280;2967;51.488;6.618;2023-05-16T08:23:45;101784.03;;;13.96;97.63
5883;BME280;2967;51.488;6.618;2023-05-16T08:28:48;101801.34;;;14.17;100.00
5883;BME280;2967;51.488;6.618;2023-05-16T08:33:50;101784.50;;;14.31;92.06
5883;BME280;2967;51.488;6.618;2023-05-16T08:38:54;101795.72;;;13.94;90.54
5883;BME280;2967;51.488;6.618;2023-05-16T08:43:59;101794.31;;;13.88;92.75
5883;BME280;2967;51.488;6.618;2023-05-16T08:49:04;101792.63;;;13.73;92.29
5883;BME280;2967;51.488;6.618;2023-05-16T08:54:11;101788.59;;;13.80;91.88
5883;BME280;2967;51.488;6.618;2023-05-16T08:59:14;101791.81;;;13.99;88.33
5883;BME280;2967;51.488;6.618;2023-05-16T09:04:17;101788.00;;;14.31;87.40
5883;BME280;2967;51.488;6.618;2023-05-16T09:09:22;101785.56;;;14.55;87.62
5883;BME280;2967;51.488;6.618;2023-05-16T09:14:25;101797.06;;;14.55;86.23
5883;BME280;2967;51.488;6.618;2023-05-16T09:19:32;101796.94;;;14.57;88.85
5883;BME280;2967;51.488;6.618;2023-05-16T09:24:40;101793.84;;;14.50;89.38
5883;BME280;2967;51.488;6.618;2023-05-16T09:29:45;101789.09;;;14.41;92.33
5883;BME280;2967;51.488;6.618;2023-05-16T09:34:52;101790.94;;;14.41;92.98
5883;BME280;2967;51.488;6.618;2023-05-16T09:39:59;101776.38;;;14.32;91.85
5883;BME280;2967;51.488;6.618;2023-05-16T09:45:02;101789.03;;;14.43;94.63
5883;BME280;2967;51.488;6.618;2023-05-16T09:50:06;101778.44;;;14.55;93.16
5883;BME280;2967;51.488;6.618;2023-05-16T09:55:10;101791.78;;;14.68;89.05
5883;BME280;2967;51.488;6.618;2023-05-16T10:00:14;101796.34;;;14.66;91.97
5883;BME280;2967;51.488;6.618;2023-05-16T10:05:17;101798.81;;;14.42;90.67
5883;BME280;2967;51.488;6.618;2023-05-16T10:10:22;101799.75;;;14.41;90.68
5883;BME280;2967;51.488;6.618;2023-05-16T10:15:25;101798.19;;;14.39;92.98
5883;BME280;2967;51.488;6.618;2023-05-16T10:20:30;101800.13;;;14.49;90.54
5883;BME280;2967;51.488;6.618;2023-05-16T10:25:38;101800.13;;;14.49;92.56
5883;BME280;2967;51.488;6.618;2023-05-16T10:30:43;101795.75;;;14.75;91.31
5883;BME280;2967;51.488;6.618;2023-05-16T10:35:46;101797.72;;;14.85;87.04
5883;BME280;2967;51.488;6.618;2023-05-16T10:40:51;101789.00;;;14.83;86.78
5883;BME280;2967;51.488;6.618;2023-05-16T10:45:54;101785.38;;;14.84;89.22
5883;BME280;2967;51.488;6.618;2023-05-16T10:50:57;101782.22;;;14.65;89.40
5883;BME280;2967;51.488;6.618;2023-05-16T10:56:07;101773.97;;;14.95;83.80
5883;BME280;2967;51.488;6.618;2023-05-16T11:01:14;101781.59;;;15.26;84.53
5883;BME280;2967;51.488;6.618;2023-05-16T11:06:20;101778.72;;;15.16;80.95
5883;BME280;2967;51.488;6.618;2023-05-16T11:11:41;101788.16;;;15.08;78.82
5883;BME280;2967;51.488;6.618;2023-05-16T11:16:49;101798.88;;;14.81;81.60
5883;BME280;2967;51.488;6.618;2023-05-16T11:22:06;101803.25;;;14.56;88.01
5883;BME280;2967;51.488;6.618;2023-05-16T11:27:11;101801.81;;;14.77;89.05
5883;BME280;2967;51.488;6.618;2023-05-16T11:32:18;101803.94;;;14.98;91.20
5883;BME280;2967;51.488;6.618;2023-05-16T11:37:22;101799.06;;;15.17;89.73
5883;BME280;2967;51.488;6.618;2023-05-16T11:42:29;101781.59;;;15.13;83.79
5883;BME280;2967;51.488;6.618;2023-05-16T11:47:35;101789.31;;;15.30;83.29
5883;BME280;2967;51.488;6.618;2023-05-16T11:52:39;101794.88;;;15.90;86.33
5883;BME280;2967;51.488;6.618;2023-05-16T11:57:43;101795.38;;;16.07;78.82
5883;BME280;2967;51.488;6.618;2023-05-16T12:02:47;101798.03;;;16.19;72.79
5883;BME280;2967;51.488;6.618;2023-05-16T12:07:51;101789.69;;;16.24;74.54
5883;BME280;2967;51.488;6.618;2023-05-16T12:12:56;101784.72;;;16.43;76.84
5883;BME280;2967;51.488;6.618;2023-05-16T12:17:59;101778.84;;;16.50;71.34
5883;BME280;2967;51.488;6.618;2023-05-16T12:23:03;101787.50;;;16.54;66.82
5883;BME280;2967;51.488;6.618;2023-05-16T12:28:07;101783.47;;;16.83;67.59
5883;BME280;2967;51.488;6.618;2023-05-16T12:33:11;101742.22;;;16.63;66.55
5883;BME280;2967;51.488;6.618;2023-05-16T12:38:15;101772.78;;;17.17;68.93
5883;BME280;2967;51.488;6.618;2023-05-16T12:43:21;101772.41;;;17.56;69.59
5883;BME280;2967;51.488;6.618;2023-05-16T12:48:32;101736.81;;;17.67;63.48
5883;BME280;2967;51.488;6.618;2023-05-16T12:53:40;101777.81;;;17.89;65.58
5883;BME280;2967;51.488;6.618;2023-05-16T12:58:49;101767.81;;;18.02;63.10
5883;BME280;2967;51.488;6.618;2023-05-16T13:03:52;101701.47;;;17.29;63.86
5883;BME280;2967;51.488;6.618;2023-05-16T13:08:55;101780.16;;;17.03;64.08
5883;BME280;2967;51.488;6.618;2023-05-16T13:13:59;101782.13;;;16.77;62.38
5883;BME280;2967;51.488;6.618;2023-05-16T13:19:02;101787.88;;;16.60;67.23
5883;BME280;2967;51.488;6.618;2023-05-16T13:24:05;101786.75;;;17.44;71.99
5883;BME280;2967;51.488;6.618;2023-05-16T13:29:09;101790.56;;;18.19;67.57
5883;BME280;2967;51.488;6.618;2023-05-16T13:34:12;101798.72;;;18.81;64.63
5883;BME280;2967;51.488;6.618;2023-05-16T13:39:15;101807.47;;;18.94;59.42
5883;BME280;2967;51.488;6.618;2023-05-16T13:44:19;101803.81;;;18.53;62.75
5883;BME280;2967;51.488;6.618;2023-05-16T13:49:23;101791.97;;;18.98;64.42
5883;BME280;2967;51.488;6.618;2023-05-16T13:54:26;101767.09;;;19.27;64.02
5883;BME280;2967;51.488;6.618;2023-05-16T13:59:30;101797.41;;;18.76;57.27
5883;BME280;2967;51.488;6.618;2023-05-16T14:04:52;101806.50;;;18.53;61.14
5883;BME280;2967;51.488;6.618;2023-05-16T14:09:55;101805.53;;;17.88;63.37
5883;BME280;2967;51.488;6.618;2023-05-16T14:14:59;101809.91;;;17.78;63.21
5883;BME280;2967;51.488;6.618;2023-05-16T14:20:02;101822.06;;;17.60;64.54
5883;BME280;2967;51.488;6.618;2023-05-16T14:25:09;101826.56;;;17.25;64.56
5883;BME280;2967;51.488;6.618;2023-05-16T14:30:13;101823.06;;;16.78;67.28
5883;BME280;2967;51.488;6.618;2023-05-16T14:35:15;101828.50;;;16.76;69.69
5883;BME280;2967;51.488;6.618;2023-05-16T14:40:18;101830.47;;;16.74;69.14
5883;BME280;2967;51.488;6.618;2023-05-16T14:45:23;101834.47;;;16.56;69.59
5883;BME280;2967;51.488;6.618;2023-05-16T14:50:26;101839.00;;;16.43;71.21
5883;BME280;2967;51.488;6.618;2023-05-16T14:55:29;101839.97;;;16.30;69.98
5883;BME280;2967;51.488;6.618;2023-05-16T15:00:33;101847.81;;;16.08;73.24
5883;BME280;2967;51.488;6.618;2023-05-16T15:05:37;101852.31;;;15.95;73.90
5883;BME280;2967;51.488;6.618;2023-05-16T15:10:41;101852.72;;;16.01;73.59
5883;BME280;2967;51.488;6.618;2023-05-16T15:15:46;101783.34;;;15.39;76.55
5883;BME280;2967;51.488;6.618;2023-05-16T15:20:49;101820.53;;;15.28;77.18
5883;BME280;2967;51.488;6.618;2023-05-16T15:25:53;101874.56;;;15.57;79.17
5883;BME280;2967;51.488;6.618;2023-05-16T15:30:57;101876.59;;;15.41;80.73
5883;BME280;2967;51.488;6.618;2023-05-16T15:36:00;101880.97;;;15.28;81.14
5883;BME280;2967;51.488;6.618;2023-05-16T15:41:03;101885.88;;;15.21;81.41
5883;BME280;2967;51.488;6.618;2023-05-16T15:46:28;101880.91;;;15.03;83.35
5883;BME280;2967;51.488;6.618;2023-05-16T15:51:33;101885.94;;;15.07;84.03
5883;BME280;2967;51.488;6.618;2023-05-16T15:56:37;101887.56;;;15.22;86.67
5883;BME280;2967;51.488;6.618;2023-05-16T16:01:41;101811.44;;;14.79;84.39
5883;BME280;2967;51.488;6.618;2023-05-16T16:06:45;101890.53;;;15.32;85.92
5883;BME280;2967;51.488;6.618;2023-05-16T16:11:48;101890.97;;;15.38;82.09
5883;BME280;2967;51.488;6.618;2023-05-16T16:16:58;101895.38;;;15.25;82.34
5883;BME280;2967;51.488;6.618;2023-05-16T16:22:01;101894.53;;;15.25;84.39
5883;BME280;2967;51.488;6.618;2023-05-16T16:27:04;101889.88;;;15.02;84.54
5883;BME280;2967;51.488;6.618;2023-05-16T16:32:09;101898.00;;;15.13;86.02
5883;BME280;2967;51.488;6.618;2023-05-16T16:37:12;101889.66;;;15.05;88.08
5883;BME280;2967;51.488;6.618;2023-05-16T16:42:15;101893.47;;;15.01;88.98
5883;BME280;2967;51.488;6.618;2023-05-16T16:47:20;101901.72;;;15.10;87.68
5883;BME280;2967;51.488;6.618;2023-05-16T16:52:23;101905.84;;;15.02;88.95
5883;BME280;2967;51.488;6.618;2023-05-16T16:57:27;101907.78;;;15.00;89.12
5883;BME280;2967;51.488;6.618;2023-05-16T17:02:31;101911.38;;;14.99;90.25
5883;BME280;2967;51.488;6.618;2023-05-16T17:07:34;101916.00;;;15.09;86.37
5883;BME280;2967;51.488;6.618;2023-05-16T17:12:36;101925.97;;;14.93;86.52
5883;BME280;2967;51.488;6.618;2023-05-16T17:17:47;101929.47;;;14.94;85.82
5883;BME280;2967;51.488;6.618;2023-05-16T17:22:50;101928.72;;;14.92;86.23
5883;BME280;2967;51.488;6.618;2023-05-16T17:27:53;101939.75;;;14.86;88.38
5883;BME280;2967;51.488;6.618;2023-05-16T17:32:57;101936.63;;;14.79;87.71
5883;BME280;2967;51.488;6.618;2023-05-16T17:38:00;101949.00;;;14.80;87.15
5883;BME280;2967;51.488;6.618;2023-05-16T17:43:04;101937.22;;;14.70;88.78
5883;BME280;2967;51.488;6.618;2023-05-16T17:48:08;101922.91;;;14.59;87.96
5883;BME280;2967;51.488;6.618;2023-05-16T17:53:12;101938.25;;;14.68;88.79
5883;BME280;2967;51.488;6.618;2023-05-16T17:58:15;101947.03;;;14.70;89.82
5883;BME280;2967;51.488;6.618;2023-05-16T18:03:19;101948.38;;;14.63;88.96
5883;BME280;2967;51.488;6.618;2023-05-16T18:08:22;101951.41;;;14.57;89.55
5883;BME280;2967;51.488;6.618;2023-05-16T18:13:25;101947.31;;;14.51;89.70
5883;BME280;2967;51.488;6.618;2023-05-16T18:18:31;101948.38;;;14.49;90.62
5883;BME280;2967;51.488;6.618;2023-05-16T18:23:37;101945.81;;;14.47;90.48
5883;BME280;2967;51.488;6.618;2023-05-16T18:28:40;101957.03;;;14.38;92.51
5883;BME280;2967;51.488;6.618;2023-05-16T18:33:45;101958.53;;;14.42;92.10
5883;BME280;2967;51.488;6.618;2023-05-16T18:38:48;101958.19;;;14.34;91.49
5883;BME280;2967;51.488;6.618;2023-05-16T18:43:51;101957.88;;;14.25;93.67
5883;BME280;2967;51.488;6.618;2023-05-16T18:48:56;101955.41;;;14.22;94.23
5883;BME280;2967;51.488;6.618;2023-05-16T18:53:59;101955.94;;;14.13;95.07
5883;BME280;2967;51.488;6.618;2023-05-16T18:59:01;101968.09;;;14.03;96.63
5883;BME280;2967;51.488;6.618;2023-05-16T19:04:06;101964.56;;;14.02;98.21
5883;BME280;2967;51.488;6.618;2023-05-16T19:09:09;101979.09;;;13.97;98.35
5883;BME280;2967;51.488;6.618;2023-05-16T19:14:12;101975.19;;;13.88;99.71
5883;BME280;2967;51.488;6.618;2023-05-16T19:19:16;101977.50;;;13.94;99.65
5883;BME280;2967;51.488;6.618;2023-05-16T19:24:19;101989.50;;;13.86;99.13
5883;BME280;2967;51.488;6.618;2023-05-16T19:29:22;101995.69;;;13.86;100.00
5883;BME280;2967;51.488;6.618;2023-05-16T19:34:27;101991.00;;;13.76;100.00
5883;BME280;2967;51.488;6.618;2023-05-16T19:39:29;102002.59;;;13.75;100.00
5883;BME280;2967;51.488;6.618;2023-05-16T19:44:32;102000.38;;;13.67;100.00
5883;BME280;2967;51.488;6.618;2023-05-16T19:49:36;102011.03;;;13.67;100.00
5883;BME280;2967;51.488;6.618;2023-05-16T19:54:39;102001.88;;;13.57;100.00
5883;BME280;2967;51.488;6.618;2023-05-16T19:59:42;102006.91;;;13.62;100.00
5883;BME280;2967;51.488;6.618;2023-05-16T20:04:46;102008.81;;;13.60;100.00
5883;BME280;2967;51.488;6.618;2023-05-16T20:09:49;102023.06;;;13.59;100.00
5883;BME280;2967;51.488;6.618;2023-05-16T20:14:52;102031.16;;;13.71;100.00
5883;BME280;2967;51.488;6.618;2023-05-16T20:19:59;102028.69;;;13.68;100.00
5883;BME280;2967;51.488;6.618;2023-05-16T20:25:02;102031.34;;;13.68;100.00
5883;BME280;2967;51.488;6.618;2023-05-16T20:30:06;102033.16;;;13.68;100.00
5883;BME280;2967;51.488;6.618;2023-05-16T20:35:10;102038.81;;;13.62;100.00
5883;BME280;2967;51.488;6.618;2023-05-16T20:40:15;102037.69;;;13.66;100.00
5883;BME280;2967;51.488;6.618;2023-05-16T20:45:17;102043.47;;;13.58;100.00
5883;BME280;2967;51.488;6.618;2023-05-16T20:50:22;102045.69;;;13.50;100.00
5883;BME280;2967;51.488;6.618;2023-05-16T20:55:24;102047.66;;;13.47;100.00
5883;BME280;2967;51.488;6.618;2023-05-16T21:00:27;102040.81;;;13.43;100.00
5883;BME280;2967;51.488;6.618;2023-05-16T21:05:32;102047.25;;;13.39;100.00
5883;BME280;2967;51.488;6.618;2023-05-16T21:10:36;102039.44;;;13.36;100.00
5883;BME280;2967;51.488;6.618;2023-05-16T21:15:39;102043.41;;;13.29;100.00
5883;BME280;2967;51.488;6.618;2023-05-16T21:20:43;102046.56;;;13.20;100.00
5883;BME280;2967;51.488;6.618;2023-05-16T21:25:46;102044.41;;;13.11;100.00
5883;BME280;2967;51.488;6.618;2023-05-16T21:30:48;102049.84;;;12.93;100.00
5883;BME280;2967;51.488;6.618;2023-05-16T21:35:52;102052.13;;;12.83;100.00
5883;BME280;2967;51.488;6.618;2023-05-16T21:40:55;102054.72;;;12.85;100.00
5883;BME280;2967;51.488;6.618;2023-05-16T21:45:58;102057.00;;;12.75;100.00
5883;BME280;2967;51.488;6.618;2023-05-16T21:51:02;102058.13;;;12.71;100.00
5883;BME280;2967;51.488;6.618;2023-05-16T21:56:05;102067.44;;;12.63;100.00
5883;BME280;2967;51.488;6.618;2023-05-16T22:01:08;102071.09;;;12.60;100.00
5883;BME280;2967;51.488;6.618;2023-05-16T22:06:12;102069.69;;;12.53;100.00
5883;BME280;2967;51.488;6.618;2023-05-16T22:11:15;102073.72;;;12.45;100.00
5883;BME280;2967;51.488;6.618;2023-05-16T22:16:18;102076.66;;;12.39;100.00
5883;BME280;2967;51.488;6.618;2023-05-16T22:21:22;102071.22;;;12.25;100.00
5883;BME280;2967;51.488;6.618;2023-05-16T22:26:24;102083.78;;;12.38;100.00
5883;BME280;2967;51.488;6.618;2023-05-16T22:31:27;102082.69;;;12.42;100.00
5883;BME280;2967;51.488;6.618;2023-05-16T22:36:31;102073.16;;;12.38;100.00
5883;BME280;2967;51.488;6.618;2023-05-16T22:41:34;102071.75;;;12.31;100.00
5883;BME280;2967;51.488;6.618;2023-05-16T22:46:37;102082.44;;;12.30;100.00
5883;BME280;2967;51.488;6.618;2023-05-16T22:51:41;102080.72;;;12.29;100.00
5883;BME280;2967;51.488;6.618;2023-05-16T22:56:44;102087.63;;;12.33;100.00
5883;BME280;2967;51.488;6.618;2023-05-16T23:01:46;102078.53;;;12.37;100.00
5883;BME280;2967;51.488;6.618;2023-05-16T23:06:50;102077.59;;;12.38;100.00
5883;BME280;2967;51.488;6.618;2023-05-16T23:11:53;102077.06;;;12.31;100.00
5883;BME280;2967;51.488;6.618;2023-05-16T23:16:56;102084.25;;;12.29;100.00
5883;BME280;2967;51.488;6.618;2023-05-16T23:22:00;102086.91;;;12.29;100.00
5883;BME280;2967;51.488;6.618;2023-05-16T23:27:04;102081.06;;;12.23;100.00
5883;BME280;2967;51.488;6.618;2023-05-16T23:32:07;102086.91;;;12.12;100.00
5883;BME280;2967;51.488;6.618;2023-05-16T23:37:10;102092.38;;;12.09;100.00
5883;BME280;2967;51.488;6.618;2023-05-16T23:42:13;102085.34;;;12.08;100.00
5883;BME280;2967;51.488;6.618;2023-05-16T23:47:16;102090.66;;;12.08;100.00
5883;BME280;2967;51.488;6.618;2023-05-16T23:52:20;102087.66;;;11.97;100.00
5883;BME280;2967;51.488;6.618;2023-05-16T23:57:23;102099.78;;;12.03;100.00
